sensor_id;sensor_type;location;lat;lon;timestamp;temperature;humidity
37242;DHT22;23135;51.078;12.108;2022-07-24T00:01:58;14.90;99.90
37242;DHT22;23135;51.078;12.108;2022-07-24T00:04:23;14.80;99.90
37242;DHT22;23135;51.078;12.108;2022-07-24T00:06:49;14.70;99.90
37242;DHT22;23135;51.078;12.108;2022-07-24T00:09:15;14.70;99.90
37242;DHT22;23135;51.078;12.108;2022-07-24T00:11:40;14.60;99.90
37242;DHT22;23135;51.078;12.108;2022-07-24T00:14:06;14.60;99.90
37242;DHT22;23135;51.078;12.108;2022-07-24T00:16:31;14.50;99.90
37242;DHT22;23135;51.078;12.108;2022-07-24T00:18:57;14.40;99.90
37242;DHT22;23135;51.078;12.108;2022-07-24T00:21:23;14.30;99.90
37242;DHT22;23135;51.078;12.108;2022-07-24T00:23:48;14.30;99.90
37242;DHT22;23135;51.078;12.108;2022-07-24T00:26:14;14.30;99.90
37242;DHT22;23135;51.078;12.108;2022-07-24T00:28:40;14.30;99.90
37242;DHT22;23135;51.078;12.108;2022-07-24T00:31:06;14.20;99.90
37242;DHT22;23135;51.078;12.108;2022-07-24T00:33:31;14.20;99.90
37242;DHT22;23135;51.078;12.108;2022-07-24T00:35:57;14.10;99.90
37242;DHT22;23135;51.078;12.108;2022-07-24T00:38:22;14.10;99.90
37242;DHT22;23135;51.078;12.108;2022-07-24T00:40:48;14.10;99.90
37242;DHT22;23135;51.078;12.108;2022-07-24T00:43:14;14.10;99.90
37242;DHT22;23135;51.078;12.108;2022-07-24T00:45:41;14.00;99.90
37242;DHT22;23135;51.078;12.108;2022-07-24T00:48:07;14.10;99.90
37242;DHT22;23135;51.078;12.108;2022-07-24T00:50:33;14.10;99.90
37242;DHT22;23135;51.078;12.108;2022-07-24T00:52:58;14.10;99.90
37242;DHT22;23135;51.078;12.108;2022-07-24T00:55:24;14.00;99.90
37242;DHT22;23135;51.078;12.108;2022-07-24T00:57:50;14.10;99.90
37242;DHT22;23135;51.078;12.108;2022-07-24T01:00:18;14.10;99.90
37242;DHT22;23135;51.078;12.108;2022-07-24T01:02:44;14.10;99.90
37242;DHT22;23135;51.078;12.108;2022-07-24T01:05:10;14.10;99.90
37242;DHT22;23135;51.078;12.108;2022-07-24T01:07:37;14.00;99.90
37242;DHT22;23135;51.078;12.108;2022-07-24T01:10:03;14.00;99.90
37242;DHT22;23135;51.078;12.108;2022-07-24T01:12:32;13.90;99.90
37242;DHT22;23135;51.078;12.108;2022-07-24T01:14:57;13.80;99.90
37242;DHT22;23135;51.078;12.108;2022-07-24T01:17:24;13.80;99.90
37242;DHT22;23135;51.078;12.108;2022-07-24T01:19:54;13.80;99.90
37242;DHT22;23135;51.078;12.108;2022-07-24T01:22:19;13.80;99.90
37242;DHT22;23135;51.078;12.108;2022-07-24T01:24:45;13.70;99.90
37242;DHT22;23135;51.078;12.108;2022-07-24T01:27:11;13.70;99.90
37242;DHT22;23135;51.078;12.108;2022-07-24T01:29:36;13.70;99.90
37242;DHT22;23135;51.078;12.108;2022-07-24T01:32:02;13.60;99.90
37242;DHT22;23135;51.078;12.108;2022-07-24T01:34:27;13.60;99.90
37242;DHT22;23135;51.078;12.108;2022-07-24T01:36:53;13.50;99.90
37242;DHT22;23135;51.078;12.108;2022-07-24T01:39:18;13.50;99.90
37242;DHT22;23135;51.078;12.108;2022-07-24T01:41:44;13.50;99.90
37242;DHT22;23135;51.078;12.108;2022-07-24T01:44:10;13.40;99.90
37242;DHT22;23135;51.078;12.108;2022-07-24T01:46:35;13.40;99.90
37242;DHT22;23135;51.078;12.108;2022-07-24T01:49:02;13.30;99.90
37242;DHT22;23135;51.078;12.108;2022-07-24T01:51:27;13.40;99.90
37242;DHT22;23135;51.078;12.108;2022-07-24T01:53:53;13.30;99.90
37242;DHT22;23135;51.078;12.108;2022-07-24T01:56:19;13.30;99.90
37242;DHT22;23135;51.078;12.108;2022-07-24T01:58:44;13.30;99.90
37242;DHT22;23135;51.078;12.108;2022-07-24T02:01:10;13.30;99.90
37242;DHT22;23135;51.078;12.108;2022-07-24T02:03:35;13.30;99.90
37242;DHT22;23135;51.078;12.108;2022-07-24T02:06:01;13.20;99.90
37242;DHT22;23135;51.078;12.108;2022-07-24T02:08:27;13.20;99.90
37242;DHT22;23135;51.078;12.108;2022-07-24T02:10:52;13.10;99.90
37242;DHT22;23135;51.078;12.108;2022-07-24T02:13:18;13.10;99.90
37242;DHT22;23135;51.078;12.108;2022-07-24T02:15:44;13.10;99.90
37242;DHT22;23135;51.078;12.108;2022-07-24T02:18:09;13.00;99.90
37242;DHT22;23135;51.078;12.108;2022-07-24T02:20:35;13.00;99.90
37242;DHT22;23135;51.078;12.108;2022-07-24T02:23:00;13.00;99.90
37242;DHT22;23135;51.078;12.108;2022-07-24T02:25:26;13.00;99.90
37242;DHT22;23135;51.078;12.108;2022-07-24T02:27:52;13.00;99.90
37242;DHT22;23135;51.078;12.108;2022-07-24T02:30:20;13.00;99.90
37242;DHT22;23135;51.078;12.108;2022-07-24T02:32:45;12.90;99.90
37242;DHT22;23135;51.078;12.108;2022-07-24T02:35:11;12.90;99.90
37242;DHT22;23135;51.078;12.108;2022-07-24T02:37:42;13.00;99.90
37242;DHT22;23135;51.078;12.108;2022-07-24T02:40:09;12.90;99.90
37242;DHT22;23135;51.078;12.108;2022-07-24T02:42:36;12.90;99.90
37242;DHT22;23135;51.078;12.108;2022-07-24T02:45:02;12.90;99.90
37242;DHT22;23135;51.078;12.108;2022-07-24T02:47:28;12.80;99.90
37242;DHT22;23135;51.078;12.108;2022-07-24T02:49:54;12.80;99.90
37242;DHT22;23135;51.078;12.108;2022-07-24T02:52:19;12.80;99.90
37242;DHT22;23135;51.078;12.108;2022-07-24T02:54:45;12.80;99.90
37242;DHT22;23135;51.078;12.108;2022-07-24T02:57:10;12.80;99.90
37242;DHT22;23135;51.078;12.108;2022-07-24T02:59:36;12.80;99.90
37242;DHT22;23135;51.078;12.108;2022-07-24T03:02:02;12.70;99.90
37242;DHT22;23135;51.078;12.108;2022-07-24T03:04:27;12.80;99.90
37242;DHT22;23135;51.078;12.108;2022-07-24T03:06:53;12.80;99.90
37242;DHT22;23135;51.078;12.108;2022-07-24T03:09:18;12.70;99.90
37242;DHT22;23135;51.078;12.108;2022-07-24T03:11:44;12.70;99.90
37242;DHT22;23135;51.078;12.108;2022-07-24T03:14:10;12.60;99.90
37242;DHT22;23135;51.078;12.108;2022-07-24T03:16:35;12.60;99.90
37242;DHT22;23135;51.078;12.108;2022-07-24T03:19:02;12.50;99.90
37242;DHT22;23135;51.078;12.108;2022-07-24T03:21:28;12.60;99.90
37242;DHT22;23135;51.078;12.108;2022-07-24T03:23:53;12.60;99.90
37242;DHT22;23135;51.078;12.108;2022-07-24T03:26:19;12.70;99.90
37242;DHT22;23135;51.078;12.108;2022-07-24T03:28:44;12.60;99.90
37242;DHT22;23135;51.078;12.108;2022-07-24T03:31:10;12.60;99.90
37242;DHT22;23135;51.078;12.108;2022-07-24T03:33:35;12.50;99.90
37242;DHT22;23135;51.078;12.108;2022-07-24T03:36:01;12.50;99.90
37242;DHT22;23135;51.078;12.108;2022-07-24T03:38:27;12.50;99.90
37242;DHT22;23135;51.078;12.108;2022-07-24T03:40:52;12.50;99.90
37242;DHT22;23135;51.078;12.108;2022-07-24T03:43:18;12.40;99.90
37242;DHT22;23135;51.078;12.108;2022-07-24T03:45:44;12.40;99.90
37242;DHT22;23135;51.078;12.108;2022-07-24T03:48:10;12.30;99.90
37242;DHT22;23135;51.078;12.108;2022-07-24T03:50:35;12.30;99.90
37242;DHT22;23135;51.078;12.108;2022-07-24T03:53:01;12.30;99.90
37242;DHT22;23135;51.078;12.108;2022-07-24T03:55:27;12.30;99.90
37242;DHT22;23135;51.078;12.108;2022-07-24T03:57:52;12.30;99.90
37242;DHT22;23135;51.078;12.108;2022-07-24T04:00:18;12.30;99.90
37242;DHT22;23135;51.078;12.108;2022-07-24T04:02:44;12.30;99.90
37242;DHT22;23135;51.078;12.108;2022-07-24T04:05:10;12.40;99.90
37242;DHT22;23135;51.078;12.108;2022-07-24T04:07:36;12.40;99.90
37242;DHT22;23135;51.078;12.108;2022-07-24T04:10:03;12.40;99.90
37242;DHT22;23135;51.078;12.108;2022-07-24T04:12:29;12.50;99.90
37242;DHT22;23135;51.078;12.108;2022-07-24T04:14:55;12.50;99.90
37242;DHT22;23135;51.078;12.108;2022-07-24T04:17:20;12.50;99.90
37242;DHT22;23135;51.078;12.108;2022-07-24T04:19:46;12.50;99.90
37242;DHT22;23135;51.078;12.108;2022-07-24T04:22:11;12.60;99.90
37242;DHT22;23135;51.078;12.108;2022-07-24T04:24:37;12.50;99.90
37242;DHT22;23135;51.078;12.108;2022-07-24T04:27:02;12.60;99.90
37242;DHT22;23135;51.078;12.108;2022-07-24T04:29:28;12.60;99.90
37242;DHT22;23135;51.078;12.108;2022-07-24T04:31:53;12.70;99.90
37242;DHT22;23135;51.078;12.108;2022-07-24T04:34:19;12.70;99.90
37242;DHT22;23135;51.078;12.108;2022-07-24T04:36:45;12.80;99.90
37242;DHT22;23135;51.078;12.108;2022-07-24T04:39:10;12.80;99.90
37242;DHT22;23135;51.078;12.108;2022-07-24T04:41:36;12.90;99.90
37242;DHT22;23135;51.078;12.108;2022-07-24T04:44:01;12.90;99.90
37242;DHT22;23135;51.078;12.108;2022-07-24T04:46:27;12.90;99.90
37242;DHT22;23135;51.078;12.108;2022-07-24T04:48:53;13.00;99.90
37242;DHT22;23135;51.078;12.108;2022-07-24T04:51:18;13.00;99.90
37242;DHT22;23135;51.078;12.108;2022-07-24T04:53:44;13.10;99.90
37242;DHT22;23135;51.078;12.108;2022-07-24T04:56:09;13.20;99.90
37242;DHT22;23135;51.078;12.108;2022-07-24T04:58:35;13.30;99.90
37242;DHT22;23135;51.078;12.108;2022-07-24T05:01:01;13.30;99.90
37242;DHT22;23135;51.078;12.108;2022-07-24T05:03:26;13.40;99.90
37242;DHT22;23135;51.078;12.108;2022-07-24T05:05:52;13.50;99.90
37242;DHT22;23135;51.078;12.108;2022-07-24T05:08:17;13.70;99.90
37242;DHT22;23135;51.078;12.108;2022-07-24T05:10:43;13.80;99.90
37242;DHT22;23135;51.078;12.108;2022-07-24T05:13:09;13.90;99.90
37242;DHT22;23135;51.078;12.108;2022-07-24T05:15:34;14.00;99.90
37242;DHT22;23135;51.078;12.108;2022-07-24T05:18:00;14.10;99.90
37242;DHT22;23135;51.078;12.108;2022-07-24T05:20:26;14.30;99.90
37242;DHT22;23135;51.078;12.108;2022-07-24T05:22:51;14.40;99.90
37242;DHT22;23135;51.078;12.108;2022-07-24T05:25:17;14.60;99.90
37242;DHT22;23135;51.078;12.108;2022-07-24T05:27:43;14.70;99.90
37242;DHT22;23135;51.078;12.108;2022-07-24T05:30:09;14.90;99.90
37242;DHT22;23135;51.078;12.108;2022-07-24T05:32:34;15.00;99.90
37242;DHT22;23135;51.078;12.108;2022-07-24T05:35:01;15.20;99.90
37242;DHT22;23135;51.078;12.108;2022-07-24T05:37:26;15.30;99.90
37242;DHT22;23135;51.078;12.108;2022-07-24T05:39:52;15.50;99.90
37242;DHT22;23135;51.078;12.108;2022-07-24T05:42:18;15.60;99.90
37242;DHT22;23135;51.078;12.108;2022-07-24T05:44:43;15.80;99.90
37242;DHT22;23135;51.078;12.108;2022-07-24T05:47:09;16.00;99.90
37242;DHT22;23135;51.078;12.108;2022-07-24T05:49:34;16.30;99.90
37242;DHT22;23135;51.078;12.108;2022-07-24T05:52:00;16.60;99.90
37242;DHT22;23135;51.078;12.108;2022-07-24T05:54:27;16.90;99.90
37242;DHT22;23135;51.078;12.108;2022-07-24T05:56:53;17.30;99.90
37242;DHT22;23135;51.078;12.108;2022-07-24T05:59:18;17.60;99.90
37242;DHT22;23135;51.078;12.108;2022-07-24T06:01:44;17.70;99.90
37242;DHT22;23135;51.078;12.108;2022-07-24T06:04:09;18.00;99.90
37242;DHT22;23135;51.078;12.108;2022-07-24T06:06:35;18.20;99.90
37242;DHT22;23135;51.078;12.108;2022-07-24T06:09:01;18.20;99.90
37242;DHT22;23135;51.078;12.108;2022-07-24T06:11:26;18.40;99.90
37242;DHT22;23135;51.078;12.108;2022-07-24T06:13:52;18.50;99.90
37242;DHT22;23135;51.078;12.108;2022-07-24T06:16:18;18.50;99.90
37242;DHT22;23135;51.078;12.108;2022-07-24T06:18:43;18.70;99.90
37242;DHT22;23135;51.078;12.108;2022-07-24T06:21:09;19.10;99.90
37242;DHT22;23135;51.078;12.108;2022-07-24T06:23:35;19.50;99.90
37242;DHT22;23135;51.078;12.108;2022-07-24T06:26:00;19.80;99.90
37242;DHT22;23135;51.078;12.108;2022-07-24T06:28:26;20.10;99.90
37242;DHT22;23135;51.078;12.108;2022-07-24T06:30:51;20.40;99.90
37242;DHT22;23135;51.078;12.108;2022-07-24T06:33:17;20.60;99.90
37242;DHT22;23135;51.078;12.108;2022-07-24T06:35:42;20.80;99.90
37242;DHT22;23135;51.078;12.108;2022-07-24T06:38:09;21.00;99.90
37242;DHT22;23135;51.078;12.108;2022-07-24T06:40:35;21.20;99.90
37242;DHT22;23135;51.078;12.108;2022-07-24T06:43:02;21.40;99.90
37242;DHT22;23135;51.078;12.108;2022-07-24T06:45:28;21.50;99.90
37242;DHT22;23135;51.078;12.108;2022-07-24T06:47:56;21.60;99.10
37242;DHT22;23135;51.078;12.108;2022-07-24T06:50:22;21.60;99.60
37242;DHT22;23135;51.078;12.108;2022-07-24T06:52:47;21.70;98.60
37242;DHT22;23135;51.078;12.108;2022-07-24T06:55:14;21.80;99.20
37242;DHT22;23135;51.078;12.108;2022-07-24T06:57:47;22.00;99.00
37242;DHT22;23135;51.078;12.108;2022-07-24T07:00:13;22.30;98.40
37242;DHT22;23135;51.078;12.108;2022-07-24T07:02:39;22.50;98.50
37242;DHT22;23135;51.078;12.108;2022-07-24T07:05:08;22.70;97.00
37242;DHT22;23135;51.078;12.108;2022-07-24T07:07:35;22.70;96.30
37242;DHT22;23135;51.078;12.108;2022-07-24T07:10:01;22.70;95.50
37242;DHT22;23135;51.078;12.108;2022-07-24T07:12:27;22.80;95.70
37242;DHT22;23135;51.078;12.108;2022-07-24T07:14:53;23.00;95.30
37242;DHT22;23135;51.078;12.108;2022-07-24T07:17:19;23.20;95.40
37242;DHT22;23135;51.078;12.108;2022-07-24T07:19:44;23.30;95.30
37242;DHT22;23135;51.078;12.108;2022-07-24T07:22:10;23.60;94.00
37242;DHT22;23135;51.078;12.108;2022-07-24T07:24:37;23.60;94.80
37242;DHT22;23135;51.078;12.108;2022-07-24T07:27:03;23.90;93.50
37242;DHT22;23135;51.078;12.108;2022-07-24T07:29:28;24.10;93.10
37242;DHT22;23135;51.078;12.108;2022-07-24T07:31:54;24.20;93.50
37242;DHT22;23135;51.078;12.108;2022-07-24T07:34:19;24.20;93.10
37242;DHT22;23135;51.078;12.108;2022-07-24T07:36:45;24.30;92.40
37242;DHT22;23135;51.078;12.108;2022-07-24T07:39:11;24.40;91.80
37242;DHT22;23135;51.078;12.108;2022-07-24T07:41:36;24.60;91.60
37242;DHT22;23135;51.078;12.108;2022-07-24T07:44:02;25.00;91.70
37242;DHT22;23135;51.078;12.108;2022-07-24T07:46:28;25.00;91.10
37242;DHT22;23135;51.078;12.108;2022-07-24T07:48:54;25.00;91.40
37242;DHT22;23135;51.078;12.108;2022-07-24T07:51:20;25.10;90.90
37242;DHT22;23135;51.078;12.108;2022-07-24T07:53:46;25.30;91.10
37242;DHT22;23135;51.078;12.108;2022-07-24T07:56:11;25.30;90.50
37242;DHT22;23135;51.078;12.108;2022-07-24T07:58:37;25.60;90.60
37242;DHT22;23135;51.078;12.108;2022-07-24T08:01:02;25.70;88.70
37242;DHT22;23135;51.078;12.108;2022-07-24T08:03:28;25.60;88.40
37242;DHT22;23135;51.078;12.108;2022-07-24T08:05:54;25.60;89.00
37242;DHT22;23135;51.078;12.108;2022-07-24T08:08:20;25.70;87.70
37242;DHT22;23135;51.078;12.108;2022-07-24T08:10:46;25.70;86.90
37242;DHT22;23135;51.078;12.108;2022-07-24T08:13:11;25.90;88.90
37242;DHT22;23135;51.078;12.108;2022-07-24T08:15:38;25.90;85.60
37242;DHT22;23135;51.078;12.108;2022-07-24T08:18:04;25.70;87.30
37242;DHT22;23135;51.078;12.108;2022-07-24T08:20:30;25.80;85.90
37242;DHT22;23135;51.078;12.108;2022-07-24T08:22:55;25.80;85.90
37242;DHT22;23135;51.078;12.108;2022-07-24T08:25:21;26.10;87.10
37242;DHT22;23135;51.078;12.108;2022-07-24T08:27:47;26.20;85.30
37242;DHT22;23135;51.078;12.108;2022-07-24T08:30:14;26.30;85.60
37242;DHT22;23135;51.078;12.108;2022-07-24T08:32:40;26.20;84.80
37242;DHT22;23135;51.078;12.108;2022-07-24T08:35:06;26.50;85.70
37242;DHT22;23135;51.078;12.108;2022-07-24T08:37:36;26.50;86.10
37242;DHT22;23135;51.078;12.108;2022-07-24T08:40:03;26.70;84.40
37242;DHT22;23135;51.078;12.108;2022-07-24T08:42:29;26.90;84.30
37242;DHT22;23135;51.078;12.108;2022-07-24T08:44:55;27.10;84.80
37242;DHT22;23135;51.078;12.108;2022-07-24T08:47:21;27.20;83.70
37242;DHT22;23135;51.078;12.108;2022-07-24T08:49:53;27.30;84.90
37242;DHT22;23135;51.078;12.108;2022-07-24T08:52:23;27.40;85.30
37242;DHT22;23135;51.078;12.108;2022-07-24T08:54:49;27.50;82.10
37242;DHT22;23135;51.078;12.108;2022-07-24T08:57:14;27.20;83.80
37242;DHT22;23135;51.078;12.108;2022-07-24T08:59:40;27.30;83.40
37242;DHT22;23135;51.078;12.108;2022-07-24T09:02:06;27.60;83.00
37242;DHT22;23135;51.078;12.108;2022-07-24T09:07:04;27.60;82.40
37242;DHT22;23135;51.078;12.108;2022-07-24T09:09:29;27.60;81.40
37242;DHT22;23135;51.078;12.108;2022-07-24T09:12:13;27.50;82.30
37242;DHT22;23135;51.078;12.108;2022-07-24T09:14:43;27.60;81.00
37242;DHT22;23135;51.078;12.108;2022-07-24T09:22:40;28.30;80.00
37242;DHT22;23135;51.078;12.108;2022-07-24T09:25:20;28.60;79.70
37242;DHT22;23135;51.078;12.108;2022-07-24T09:27:54;28.50;78.70
37242;DHT22;23135;51.078;12.108;2022-07-24T09:30:35;28.40;78.60
37242;DHT22;23135;51.078;12.108;2022-07-24T09:33:08;28.40;76.90
37242;DHT22;23135;51.078;12.108;2022-07-24T09:35:51;28.30;77.60
37242;DHT22;23135;51.078;12.108;2022-07-24T09:38:18;28.30;77.20
37242;DHT22;23135;51.078;12.108;2022-07-24T09:40:50;28.40;77.10
37242;DHT22;23135;51.078;12.108;2022-07-24T09:48:31;28.20;76.50
37242;DHT22;23135;51.078;12.108;2022-07-24T09:51:01;28.10;76.70
37242;DHT22;23135;51.078;12.108;2022-07-24T09:53:29;28.40;76.90
37242;DHT22;23135;51.078;12.108;2022-07-24T09:56:05;28.90;77.00
37242;DHT22;23135;51.078;12.108;2022-07-24T09:58:32;28.60;75.80
37242;DHT22;23135;51.078;12.108;2022-07-24T10:00:59;28.60;75.10
37242;DHT22;23135;51.078;12.108;2022-07-24T10:03:30;28.80;73.60
37242;DHT22;23135;51.078;12.108;2022-07-24T10:06:01;28.80;73.90
37242;DHT22;23135;51.078;12.108;2022-07-24T10:08:28;28.60;73.30
37242;DHT22;23135;51.078;12.108;2022-07-24T10:10:54;28.80;74.50
37242;DHT22;23135;51.078;12.108;2022-07-24T10:13:20;29.40;73.30
37242;DHT22;23135;51.078;12.108;2022-07-24T10:16:01;29.60;72.40
37242;DHT22;23135;51.078;12.108;2022-07-24T10:18:53;29.60;72.80
37242;DHT22;23135;51.078;12.108;2022-07-24T10:21:31;29.60;70.50
37242;DHT22;23135;51.078;12.108;2022-07-24T10:26:42;30.00;72.10
37242;DHT22;23135;51.078;12.108;2022-07-24T10:29:17;29.90;70.30
37242;DHT22;23135;51.078;12.108;2022-07-24T10:31:48;30.00;70.20
37242;DHT22;23135;51.078;12.108;2022-07-24T10:39:28;29.70;69.10
37242;DHT22;23135;51.078;12.108;2022-07-24T10:42:05;29.70;68.80
37242;DHT22;23135;51.078;12.108;2022-07-24T10:44:31;30.10;69.10
37242;DHT22;23135;51.078;12.108;2022-07-24T10:47:03;30.00;68.30
37242;DHT22;23135;51.078;12.108;2022-07-24T10:52:04;30.30;67.70
37242;DHT22;23135;51.078;12.108;2022-07-24T10:54:29;30.20;67.50
37242;DHT22;23135;51.078;12.108;2022-07-24T10:56:55;30.40;67.80
37242;DHT22;23135;51.078;12.108;2022-07-24T10:59:38;30.50;67.60
37242;DHT22;23135;51.078;12.108;2022-07-24T11:02:29;30.80;66.70
37242;DHT22;23135;51.078;12.108;2022-07-24T11:05:30;31.20;66.30
37242;DHT22;23135;51.078;12.108;2022-07-24T11:27:04;31.20;65.20
37242;DHT22;23135;51.078;12.108;2022-07-24T11:29:32;31.40;64.90
37242;DHT22;23135;51.078;12.108;2022-07-24T11:32:06;31.10;65.20
37242;DHT22;23135;51.078;12.108;2022-07-24T11:34:34;31.40;65.40
37242;DHT22;23135;51.078;12.108;2022-07-24T11:37:00;31.10;63.90
37242;DHT22;23135;51.078;12.108;2022-07-24T11:39:37;31.20;65.00
37242;DHT22;23135;51.078;12.108;2022-07-24T11:42:07;31.40;62.40
37242;DHT22;23135;51.078;12.108;2022-07-24T11:44:36;31.10;64.00
37242;DHT22;23135;51.078;12.108;2022-07-24T11:47:23;31.20;64.50
37242;DHT22;23135;51.078;12.108;2022-07-24T11:50:01;31.80;62.00
37242;DHT22;23135;51.078;12.108;2022-07-24T11:52:36;32.00;60.30
37242;DHT22;23135;51.078;12.108;2022-07-24T11:57:37;32.40;58.80
37242;DHT22;23135;51.078;12.108;2022-07-24T12:00:10;32.50;59.10
37242;DHT22;23135;51.078;12.108;2022-07-24T12:02:47;32.60;57.80
37242;DHT22;23135;51.078;12.108;2022-07-24T12:05:15;32.70;57.70
37242;DHT22;23135;51.078;12.108;2022-07-24T12:07:48;32.30;56.60
37242;DHT22;23135;51.078;12.108;2022-07-24T12:10:18;32.10;57.60
37242;DHT22;23135;51.078;12.108;2022-07-24T12:12:47;32.10;57.20
37242;DHT22;23135;51.078;12.108;2022-07-24T12:15:14;32.30;57.30
37242;DHT22;23135;51.078;12.108;2022-07-24T12:18:01;32.60;57.10
37242;DHT22;23135;51.078;12.108;2022-07-24T12:20:42;32.40;56.70
37242;DHT22;23135;51.078;12.108;2022-07-24T12:23:13;32.30;57.00
37242;DHT22;23135;51.078;12.108;2022-07-24T12:25:40;31.70;57.60
37242;DHT22;23135;51.078;12.108;2022-07-24T12:28:14;31.80;56.80
37242;DHT22;23135;51.078;12.108;2022-07-24T12:30:42;32.00;58.40
37242;DHT22;23135;51.078;12.108;2022-07-24T12:33:23;32.30;58.00
37242;DHT22;23135;51.078;12.108;2022-07-24T12:38:54;32.30;57.60
37242;DHT22;23135;51.078;12.108;2022-07-24T12:41:22;32.30;57.30
37242;DHT22;23135;51.078;12.108;2022-07-24T12:44:04;32.00;58.00
37242;DHT22;23135;51.078;12.108;2022-07-24T12:46:34;32.00;57.10
37242;DHT22;23135;51.078;12.108;2022-07-24T12:49:01;32.00;57.00
37242;DHT22;23135;51.078;12.108;2022-07-24T12:51:48;31.80;56.80
37242;DHT22;23135;51.078;12.108;2022-07-24T12:56:42;32.60;56.90
37242;DHT22;23135;51.078;12.108;2022-07-24T12:59:08;32.60;57.80
37242;DHT22;23135;51.078;12.108;2022-07-24T13:02:04;32.50;56.10
37242;DHT22;23135;51.078;12.108;2022-07-24T13:04:30;32.30;56.10
37242;DHT22;23135;51.078;12.108;2022-07-24T13:06:58;32.10;56.50
37242;DHT22;23135;51.078;12.108;2022-07-24T13:09:25;32.30;57.10
37242;DHT22;23135;51.078;12.108;2022-07-24T13:11:52;32.70;56.90
37242;DHT22;23135;51.078;12.108;2022-07-24T13:14:20;32.60;56.40
37242;DHT22;23135;51.078;12.108;2022-07-24T13:16:47;32.70;55.50
37242;DHT22;23135;51.078;12.108;2022-07-24T13:19:14;32.80;55.70
37242;DHT22;23135;51.078;12.108;2022-07-24T13:21:40;32.80;56.10
37242;DHT22;23135;51.078;12.108;2022-07-24T13:24:08;32.70;55.90
37242;DHT22;23135;51.078;12.108;2022-07-24T13:26:35;32.90;56.00
37242;DHT22;23135;51.078;12.108;2022-07-24T13:29:03;33.00;55.80
37242;DHT22;23135;51.078;12.108;2022-07-24T13:31:28;33.30;55.70
37242;DHT22;23135;51.078;12.108;2022-07-24T13:33:54;33.20;54.60
37242;DHT22;23135;51.078;12.108;2022-07-24T13:36:19;33.30;55.90
37242;DHT22;23135;51.078;12.108;2022-07-24T13:38:45;33.00;54.40
37242;DHT22;23135;51.078;12.108;2022-07-24T13:41:12;33.10;55.00
37242;DHT22;23135;51.078;12.108;2022-07-24T13:43:39;33.10;55.70
37242;DHT22;23135;51.078;12.108;2022-07-24T13:46:05;32.60;55.10
37242;DHT22;23135;51.078;12.108;2022-07-24T13:48:31;32.70;54.50
37242;DHT22;23135;51.078;12.108;2022-07-24T13:50:56;32.60;55.50
37242;DHT22;23135;51.078;12.108;2022-07-24T13:53:22;32.70;56.20
37242;DHT22;23135;51.078;12.108;2022-07-24T13:55:48;32.40;55.40
37242;DHT22;23135;51.078;12.108;2022-07-24T13:58:14;32.20;54.90
37242;DHT22;23135;51.078;12.108;2022-07-24T14:00:40;32.40;55.70
37242;DHT22;23135;51.078;12.108;2022-07-24T14:03:06;32.40;54.80
37242;DHT22;23135;51.078;12.108;2022-07-24T14:05:31;32.40;55.10
37242;DHT22;23135;51.078;12.108;2022-07-24T14:07:57;32.60;55.80
37242;DHT22;23135;51.078;12.108;2022-07-24T14:10:23;32.60;54.80
37242;DHT22;23135;51.078;12.108;2022-07-24T14:12:49;32.60;54.40
37242;DHT22;23135;51.078;12.108;2022-07-24T14:15:15;32.70;54.40
37242;DHT22;23135;51.078;12.108;2022-07-24T14:17:42;32.60;55.10
37242;DHT22;23135;51.078;12.108;2022-07-24T14:20:09;32.10;54.80
37242;DHT22;23135;51.078;12.108;2022-07-24T14:22:37;31.70;54.50
37242;DHT22;23135;51.078;12.108;2022-07-24T14:25:03;31.80;55.30
37242;DHT22;23135;51.078;12.108;2022-07-24T14:27:29;32.00;55.20
37242;DHT22;23135;51.078;12.108;2022-07-24T14:29:55;32.20;54.10
37242;DHT22;23135;51.078;12.108;2022-07-24T14:32:20;32.30;54.50
37242;DHT22;23135;51.078;12.108;2022-07-24T14:34:46;32.60;55.20
37242;DHT22;23135;51.078;12.108;2022-07-24T14:37:12;32.50;54.30
37242;DHT22;23135;51.078;12.108;2022-07-24T14:39:37;32.60;53.50
37242;DHT22;23135;51.078;12.108;2022-07-24T14:42:03;32.60;55.20
37242;DHT22;23135;51.078;12.108;2022-07-24T14:44:29;32.60;55.30
37242;DHT22;23135;51.078;12.108;2022-07-24T14:46:54;32.50;55.10
37242;DHT22;23135;51.078;12.108;2022-07-24T14:49:20;32.40;54.60
37242;DHT22;23135;51.078;12.108;2022-07-24T14:51:46;32.30;54.00
37242;DHT22;23135;51.078;12.108;2022-07-24T14:54:12;32.00;54.90
37242;DHT22;23135;51.078;12.108;2022-07-24T14:56:38;31.70;55.00
37242;DHT22;23135;51.078;12.108;2022-07-24T14:59:05;31.50;55.30
37242;DHT22;23135;51.078;12.108;2022-07-24T15:01:31;31.40;54.80
37242;DHT22;23135;51.078;12.108;2022-07-24T15:03:57;31.30;54.80
37242;DHT22;23135;51.078;12.108;2022-07-24T15:06:22;31.30;55.00
37242;DHT22;23135;51.078;12.108;2022-07-24T15:08:48;31.20;55.40
37242;DHT22;23135;51.078;12.108;2022-07-24T15:11:14;31.20;55.60
37242;DHT22;23135;51.078;12.108;2022-07-24T15:13:39;31.20;55.60
37242;DHT22;23135;51.078;12.108;2022-07-24T15:16:08;31.10;55.10
37242;DHT22;23135;51.078;12.108;2022-07-24T15:18:34;30.90;55.40
37242;DHT22;23135;51.078;12.108;2022-07-24T15:21:00;30.60;55.10
37242;DHT22;23135;51.078;12.108;2022-07-24T15:23:26;30.40;55.80
37242;DHT22;23135;51.078;12.108;2022-07-24T15:25:52;30.40;55.00
37242;DHT22;23135;51.078;12.108;2022-07-24T15:28:19;30.40;55.90
37242;DHT22;23135;51.078;12.108;2022-07-24T15:30:44;30.40;56.00
37242;DHT22;23135;51.078;12.108;2022-07-24T15:33:10;30.50;56.70
37242;DHT22;23135;51.078;12.108;2022-07-24T15:35:36;30.40;55.80
37242;DHT22;23135;51.078;12.108;2022-07-24T15:38:02;30.20;56.30
37242;DHT22;23135;51.078;12.108;2022-07-24T15:40:28;30.30;56.40
37242;DHT22;23135;51.078;12.108;2022-07-24T15:42:55;30.30;55.80
37242;DHT22;23135;51.078;12.108;2022-07-24T15:45:21;30.20;56.30
37242;DHT22;23135;51.078;12.108;2022-07-24T15:47:47;30.20;56.20
37242;DHT22;23135;51.078;12.108;2022-07-24T15:50:12;30.30;56.50
37242;DHT22;23135;51.078;12.108;2022-07-24T15:52:39;30.40;55.80
37242;DHT22;23135;51.078;12.108;2022-07-24T15:55:05;30.40;56.70
37242;DHT22;23135;51.078;12.108;2022-07-24T15:57:30;30.30;56.60
37242;DHT22;23135;51.078;12.108;2022-07-24T15:59:56;30.10;56.20
37242;DHT22;23135;51.078;12.108;2022-07-24T16:02:22;30.10;56.70
37242;DHT22;23135;51.078;12.108;2022-07-24T16:04:49;30.10;57.10
37242;DHT22;23135;51.078;12.108;2022-07-24T16:07:14;30.20;56.30